Time;durP1;ratioP1;P1;durP2;ratioP2;P2;SDS_P1;SDS_P2;PMS_P1;PMS_P2;Temp;Humidity;BMP_temperature;BMP_pressure;BME280_temperature;BME280_humidity;BME280_pressure;Samples;Min_cycle;Max_cycle;Signal;HPM_P1;HPM_P2
2023/01/15 00:01:04;;;;;;;10.50;1.40;;;8.40;99.90;;;;;;4995857;28;20074;-66
2023/01/15 00:03:30;;;;;;;3.80;1.00;;;8.40;99.90;;;;;;4995781;28;20030;-66
2023/01/15 00:06:00;;;;;;;7.63;0.85;;;8.40;99.90;;;;;;4995826;28;20033;-66
2023/01/15 00:08:26;;;;;;;12.10;1.73;;;8.40;99.90;;;;;;4994705;28;20031;-66
2023/01/15 00:10:52;;;;;;;5.78;1.17;;;8.50;99.90;;;;;;4995894;28;20044;-66
2023/01/15 00:13:18;;;;;;;8.43;0.93;;;8.50;99.90;;;;;;4995358;28;20027;-65
2023/01/15 00:15:44;;;;;;;6.70;2.33;;;8.40;99.90;;;;;;4995750;28;20386;-66
2023/01/15 00:18:09;;;;;;;11.18;1.08;;;8.40;99.90;;;;;;4994266;28;20575;-66
2023/01/15 00:20:35;;;;;;;4.47;0.60;;;8.40;99.90;;;;;;4995757;28;20109;-65
2023/01/15 00:23:01;;;;;;;5.95;1.30;;;8.40;99.90;;;;;;4995770;28;20471;-66
2023/01/15 00:28:14;;;;;;;8.30;1.17;;;8.40;99.90;;;;;;4995529;28;20038;-66
2023/01/15 00:30:41;;;;;;;10.93;1.45;;;8.50;99.90;;;;;;4995475;28;20030;-66
2023/01/15 00:33:07;;;;;;;4.82;1.08;;;8.40;99.90;;;;;;4995239;28;20530;-65
2023/01/15 00:35:33;;;;;;;8.40;1.92;;;8.40;99.90;;;;;;4995380;28;20050;-66
2023/01/15 00:38:01;;;;;;;4.53;2.55;;;8.40;99.90;;;;;;4995326;28;20372;-66
2023/01/15 00:40:27;;;;;;;8.52;1.40;;;8.30;99.90;;;;;;4995405;28;20085;-66
2023/01/15 00:42:52;;;;;;;10.55;1.38;;;8.40;99.90;;;;;;4993842;28;20026;-65
2023/01/15 00:45:18;;;;;;;9.60;1.35;;;8.40;99.90;;;;;;4994133;28;20085;-66
2023/01/15 00:47:47;;;;;;;10.70;1.83;;;8.40;99.90;;;;;;4994935;28;20026;-66
2023/01/15 00:50:14;;;;;;;11.40;1.13;;;8.30;99.90;;;;;;4993937;28;20034;-65
2023/01/15 00:52:41;;;;;;;5.20;1.40;;;8.30;99.90;;;;;;4993827;28;20034;-66
2023/01/15 00:55:08;;;;;;;6.70;1.23;;;8.30;99.90;;;;;;4994951;28;20053;-66
2023/01/15 00:57:33;;;;;;;12.90;1.38;;;8.30;99.90;;;;;;4994977;28;20088;-66
2023/01/15 00:59:59;;;;;;;8.38;1.42;;;8.20;99.90;;;;;;4994988;28;20383;-65
2023/01/15 01:02:25;;;;;;;9.85;1.13;;;8.30;99.90;;;;;;4993321;28;20030;-65
2023/01/15 01:04:51;;;;;;;9.43;1.73;;;8.30;99.90;;;;;;4994437;28;20034;-66
2023/01/15 01:07:17;;;;;;;1.95;0.63;;;8.20;99.90;;;;;;4993547;28;20037;-66
2023/01/15 01:09:43;;;;;;;12.48;1.50;;;8.20;99.90;;;;;;4994888;28;20660;-66
2023/01/15 01:12:09;;;;;;;11.00;1.73;;;8.20;99.90;;;;;;4994735;28;20058;-65
2023/01/15 01:14:36;;;;;;;14.35;1.60;;;8.20;99.90;;;;;;4995045;28;20094;-66
2023/01/15 01:17:03;;;;;;;9.40;1.50;;;8.20;99.90;;;;;;4994271;28;20046;-65
2023/01/15 01:19:29;;;;;;;8.93;1.65;;;8.20;99.90;;;;;;4994570;28;20021;-69
2023/01/15 01:21:55;;;;;;;6.55;1.40;;;8.20;99.90;;;;;;4994764;28;20529;-65
2023/01/15 01:24:22;;;;;;;15.32;0.85;;;8.20;99.90;;;;;;4992895;28;20106;-65
2023/01/15 01:26:49;;;;;;;3.95;0.55;;;8.10;99.90;;;;;;4993790;28;20038;-65
2023/01/15 01:29:20;;;;;;;5.00;1.38;;;8.20;99.90;;;;;;4993054;28;20026;-64
2023/01/15 01:31:47;;;;;;;8.68;1.77;;;8.10;99.90;;;;;;4994305;28;20487;-65
2023/01/15 01:34:13;;;;;;;6.28;1.52;;;8.00;99.90;;;;;;4995529;28;20386;-65
2023/01/15 01:36:41;;;;;;;7.15;1.20;;;8.00;99.90;;;;;;5005215;28;20038;-64
2023/01/15 01:39:13;;;;;;;4.47;1.05;;;8.00;99.90;;;;;;4994110;28;20033;-64
2023/01/15 01:41:38;;;;;;;5.68;1.38;;;8.00;99.90;;;;;;4994655;28;20454;-65
2023/01/15 01:44:10;;;;;;;6.25;1.00;;;8.00;99.90;;;;;;4993021;28;20062;-65
2023/01/15 01:46:36;;;;;;;12.68;1.50;;;8.00;99.90;;;;;;4992891;28;20026;-65
2023/01/15 01:49:11;;;;;;;3.15;1.00;;;8.00;99.90;;;;;;4994117;28;20034;-65
2023/01/15 01:51:44;;;;;;;2.05;1.10;;;8.10;99.90;;;;;;4993084;28;20026;-64
2023/01/15 01:54:14;;;;;;;8.20;1.15;;;8.00;99.90;;;;;;4992643;28;20041;-64
2023/01/15 01:56:41;;;;;;;5.70;1.45;;;8.00;99.90;;;;;;4994067;28;20042;-65
2023/01/15 01:59:08;;;;;;;6.32;1.35;;;7.90;99.90;;;;;;4993646;28;20018;-64
2023/01/15 02:01:34;;;;;;;2.55;0.93;;;8.00;99.90;;;;;;4993771;28;20116;-65
2023/01/15 02:04:00;;;;;;;14.85;1.63;;;8.00;99.90;;;;;;4993678;28;20050;-64
2023/01/15 02:06:27;;;;;;;6.68;1.17;;;8.00;99.90;;;;;;4994187;28;20042;-64
2023/01/15 02:08:53;;;;;;;5.53;1.20;;;8.00;99.90;;;;;;4993671;28;20022;-65
2023/01/15 02:11:22;;;;;;;18.30;0.90;;;8.00;99.90;;;;;;4992575;28;20037;-64
2023/01/15 02:14:06;;;;;;;9.52;1.60;;;7.90;99.90;;;;;;4991871;28;20022;-64
2023/01/15 02:16:51;;;;;;;6.03;1.27;;;7.90;99.90;;;;;;4991750;28;20062;-65
2023/01/15 02:19:32;;;;;;;8.20;1.60;;;8.00;99.90;;;;;;4991854;28;20031;-64
2023/01/15 02:22:17;;;;;;;9.73;3.17;;;7.90;99.90;;;;;;4992220;28;20030;-65
2023/01/15 02:24:51;;;;;;;8.10;0.93;;;7.90;99.90;;;;;;4993366;28;20738;-65
2023/01/15 02:27:20;;;;;;;8.20;1.67;;;7.90;99.90;;;;;;4992346;28;20365;-64
2023/01/15 02:30:04;;;;;;;5.60;1.33;;;7.90;99.90;;;;;;4991907;28;20034;-64
2023/01/15 02:32:48;;;;;;;11.95;1.50;;;7.90;99.90;;;;;;4993442;28;20062;-64
2023/01/15 02:35:33;;;;;;;1.92;0.47;;;7.80;99.90;;;;;;4991822;28;20093;-64
2023/01/15 02:38:03;;;;;;;10.48;1.17;;;7.90;99.90;;;;;;4991881;28;20052;-65
2023/01/15 02:40:31;;;;;;;9.40;1.30;;;7.80;99.90;;;;;;4993416;28;20022;-65
2023/01/15 02:42:58;;;;;;;1.55;0.60;;;7.90;99.90;;;;;;4993264;28;20026;-65
2023/01/15 02:45:31;;;;;;;4.18;1.05;;;7.90;99.90;;;;;;4992658;28;20023;-65
2023/01/15 02:48:11;;;;;;;9.65;1.27;;;7.80;99.90;;;;;;4992183;28;20029;-65
2023/01/15 02:50:47;;;;;;;8.55;1.92;;;7.90;99.90;;;;;;4991898;28;20038;-64
2023/01/15 02:53:18;;;;;;;6.20;1.08;;;7.80;99.90;;;;;;4992144;28;20033;-65
2023/01/15 02:55:48;;;;;;;3.08;0.70;;;7.80;99.90;;;;;;4991766;28;20046;-65
2023/01/15 02:58:27;;;;;;;10.50;1.90;;;7.80;99.90;;;;;;4991960;28;20389;-64
2023/01/15 03:01:03;;;;;;;17.30;2.08;;;7.70;99.90;;;;;;4991895;28;20073;-65
2023/01/15 03:03:41;;;;;;;3.83;1.20;;;7.80;99.90;;;;;;4992194;28;20446;-65
2023/01/15 03:06:14;;;;;;;9.63;1.67;;;7.80;99.90;;;;;;4981123;28;20019;-65
2023/01/15 03:08:41;;;;;;;3.45;0.98;;;7.80;99.90;;;;;;4992997;28;20594;-66
2023/01/15 03:11:10;;;;;;;12.52;1.60;;;7.70;99.90;;;;;;4991908;28;20447;-64
2023/01/15 03:13:50;;;;;;;4.13;0.98;;;7.80;99.90;;;;;;4991516;28;20041;-65
2023/01/15 03:16:36;;;;;;;8.48;1.48;;;7.70;99.90;;;;;;4980524;28;20446;-65
2023/01/15 03:19:24;;;;;;;10.82;1.27;;;7.70;99.90;;;;;;4991726;28;20076;-64
2023/01/15 03:22:07;;;;;;;13.80;1.38;;;7.80;99.90;;;;;;4991754;28;20030;-64
2023/01/15 03:24:42;;;;;;;6.80;1.23;;;7.80;99.90;;;;;;4991434;28;20062;-64
2023/01/15 03:27:08;;;;;;;4.35;1.92;;;7.70;99.90;;;;;;4991363;28;20034;-65
2023/01/15 03:29:41;;;;;;;12.98;1.92;;;7.70;99.90;;;;;;4991867;28;20048;-64
2023/01/15 03:32:07;;;;;;;15.23;2.33;;;7.70;99.90;;;;;;4991786;28;20031;-65
2023/01/15 03:34:39;;;;;;;13.85;1.73;;;7.70;99.90;;;;;;4992811;28;20027;-64
2023/01/15 03:37:06;;;;;;;4.85;1.05;;;7.80;99.90;;;;;;4991580;28;20073;-68
2023/01/15 03:39:32;;;;;;;4.00;0.77;;;7.70;99.90;;;;;;4991491;28;20027;-64
2023/01/15 03:42:32;;;;;;;6.90;1.55;;;7.70;99.90;;;;;;4992877;28;20032;-66
2023/01/15 03:45:07;;;;;;;5.37;0.80;;;7.70;99.90;;;;;;4991616;28;20023;-65
2023/01/15 03:47:51;;;;;;;10.68;1.75;;;7.60;99.90;;;;;;4991576;28;20396;-65
2023/01/15 03:50:44;;;;;;;7.28;1.58;;;7.50;99.90;;;;;;4994729;28;20033;-65
2023/01/15 03:53:18;;;;;;;14.35;2.40;;;7.50;99.90;;;;;;4995063;28;20030;-64
2023/01/15 03:56:09;;;;;;;9.90;1.42;;;7.50;99.90;;;;;;4994761;28;20093;-64
2023/01/15 03:59:04;;;;;;;7.03;1.20;;;7.50;99.90;;;;;;4994949;28;20038;-65
2023/01/15 04:01:49;;;;;;;10.60;1.92;;;7.60;99.90;;;;;;4995898;28;20076;-64
2023/01/15 04:04:16;;;;;;;5.05;0.75;;;7.50;99.90;;;;;;4994708;28;20041;-64
2023/01/15 04:06:45;;;;;;;12.30;2.05;;;7.40;99.90;;;;;;4978492;28;20026;-64
2023/01/15 04:09:13;;;;;;;8.25;1.23;;;7.50;99.90;;;;;;4994886;28;20030;-64
2023/01/15 04:11:41;;;;;;;8.43;1.55;;;7.50;99.90;;;;;;4994280;28;20052;-64
2023/01/15 04:14:12;;;;;;;9.82;1.42;;;7.50;99.90;;;;;;4994561;28;20034;-64
2023/01/15 04:16:57;;;;;;;11.93;0.90;;;7.40;99.90;;;;;;4995678;28;20049;-64
2023/01/15 04:19:24;;;;;;;6.32;1.05;;;7.50;99.90;;;;;;4994692;28;20084;-64
2023/01/15 04:22:03;;;;;;;4.57;0.98;;;7.50;99.90;;;;;;4994409;28;20030;-65
2023/01/15 04:24:28;;;;;;;9.00;1.45;;;7.40;99.90;;;;;;4995506;28;20021;-64
2023/01/15 04:26:54;;;;;;;1.55;0.40;;;7.50;99.90;;;;;;4995464;28;20027;-65
2023/01/15 04:29:20;;;;;;;17.83;1.60;;;7.40;99.90;;;;;;4995720;28;20487;-65
2023/01/15 04:31:46;;;;;;;1.45;0.73;;;7.50;99.90;;;;;;4995491;28;20089;-65
2023/01/15 04:34:11;;;;;;;17.48;1.38;;;7.40;99.90;;;;;;4995589;28;20027;-65
2023/01/15 04:36:37;;;;;;;7.28;1.50;;;7.40;99.90;;;;;;4995407;28;20034;-65
2023/01/15 04:39:04;;;;;;;15.65;3.22;;;7.30;99.90;;;;;;4995048;28;20376;-65
2023/01/15 04:44:14;;;;;;;7.53;1.00;;;7.30;99.90;;;;;;4995413;28;20553;-64
2023/01/15 04:46:42;;;;;;;6.60;1.30;;;7.40;99.90;;;;;;4995251;28;20046;-64
2023/01/15 04:49:11;;;;;;;9.98;1.15;;;7.30;99.90;;;;;;4994053;28;20455;-64
2023/01/15 04:51:38;;;;;;;11.00;1.92;;;7.40;99.90;;;;;;4995140;28;20399;-64
2023/01/15 04:54:04;;;;;;;10.60;1.08;;;7.20;99.90;;;;;;4994665;28;20030;-64
2023/01/15 04:56:31;;;;;;;17.23;1.80;;;7.20;99.90;;;;;;4994999;28;20048;-64
2023/01/15 04:59:00;;;;;;;6.65;1.17;;;7.20;99.90;;;;;;4995147;28;20034;-64
2023/01/15 05:01:26;;;;;;;4.82;0.85;;;7.20;99.90;;;;;;4995021;28;20546;-64
2023/01/15 05:03:52;;;;;;;11.13;1.40;;;7.10;99.90;;;;;;4994708;28;20022;-64
2023/01/15 05:06:18;;;;;;;3.80;1.17;;;7.20;99.90;;;;;;4995320;28;20038;-65
2023/01/15 05:08:44;;;;;;;6.55;1.23;;;7.20;99.90;;;;;;4994414;28;20030;-64
2023/01/15 05:11:11;;;;;;;7.38;1.08;;;7.20;99.90;;;;;;4994975;28;20506;-64
2023/01/15 05:13:37;;;;;;;7.07;0.85;;;7.30;99.90;;;;;;4994404;28;20050;-64
2023/01/15 05:16:13;;;;;;;14.95;1.92;;;7.20;99.90;;;;;;4994795;28;20026;-64
2023/01/15 05:18:40;;;;;;;6.78;0.57;;;7.10;99.90;;;;;;4994444;28;20034;-65
2023/01/15 05:21:06;;;;;;;6.13;1.33;;;7.20;99.90;;;;;;4994837;28;20468;-64
2023/01/15 05:23:31;;;;;;;11.77;2.00;;;7.10;99.90;;;;;;4994239;28;20038;-64
2023/01/15 05:25:57;;;;;;;8.88;1.10;;;7.20;99.90;;;;;;4994266;28;20034;-65
2023/01/15 05:28:23;;;;;;;14.68;2.00;;;7.20;99.90;;;;;;4994485;28;20117;-64
2023/01/15 05:30:49;;;;;;;21.10;1.88;;;7.20;99.90;;;;;;4992991;28;20061;-64
2023/01/15 05:33:14;;;;;;;7.50;1.60;;;7.20;99.90;;;;;;4993095;28;20038;-64
2023/01/15 05:35:40;;;;;;;6.93;0.90;;;7.20;99.90;;;;;;4993317;28;20038;-64
2023/01/15 05:38:06;;;;;;;10.40;1.65;;;7.20;99.90;;;;;;4993593;28;20038;-64
2023/01/15 05:40:32;;;;;;;12.50;1.73;;;7.20;99.90;;;;;;4994312;28;20033;-64
2023/01/15 05:42:58;;;;;;;3.58;0.93;;;7.20;99.90;;;;;;4994061;28;20034;-64
2023/01/15 05:45:23;;;;;;;8.82;1.15;;;7.20;99.90;;;;;;4994389;28;20499;-64
2023/01/15 05:47:51;;;;;;;16.80;1.55;;;7.10;99.90;;;;;;4994206;28;20022;-64
2023/01/15 05:50:18;;;;;;;6.15;1.15;;;7.10;99.90;;;;;;4994115;28;20475;-64
2023/01/15 05:52:45;;;;;;;8.95;1.20;;;7.10;99.90;;;;;;4993821;28;20483;-64
2023/01/15 05:55:11;;;;;;;12.43;1.25;;;7.10;99.90;;;;;;4993657;28;20074;-64
2023/01/15 05:57:37;;;;;;;2.05;0.52;;;7.00;99.90;;;;;;4994084;28;20034;-64
2023/01/15 06:00:04;;;;;;;4.18;0.90;;;7.00;99.90;;;;;;4993981;28;20041;-64
2023/01/15 06:02:38;;;;;;;3.45;1.05;;;7.00;99.90;;;;;;4993847;28;20407;-64
2023/01/15 06:05:04;;;;;;;8.98;0.70;;;7.00;99.90;;;;;;4993768;28;20022;-64
2023/01/15 06:07:30;;;;;;;8.90;1.75;;;7.00;99.90;;;;;;4993469;28;20042;-64
2023/01/15 06:09:56;;;;;;;8.90;0.77;;;7.00;99.90;;;;;;4993815;28;20030;-64
2023/01/15 06:12:22;;;;;;;6.53;1.23;;;6.90;99.90;;;;;;4993285;28;20065;-64
2023/01/15 06:14:47;;;;;;;3.72;0.95;;;7.00;99.90;;;;;;4993627;28;20038;-64
2023/01/15 06:17:13;;;;;;;3.08;0.90;;;6.90;99.90;;;;;;4993682;28;20038;-64
2023/01/15 06:19:39;;;;;;;9.07;1.27;;;6.90;99.90;;;;;;4993772;28;20030;-64
2023/01/15 06:22:05;;;;;;;5.22;0.82;;;6.80;99.90;;;;;;4993164;28;20546;-64
2023/01/15 06:24:31;;;;;;;5.40;1.25;;;6.90;99.90;;;;;;4993764;28;20034;-64
2023/01/15 06:26:56;;;;;;;19.08;2.08;;;6.80;99.90;;;;;;4993582;28;20033;-64
2023/01/15 06:29:22;;;;;;;2.53;0.98;;;6.70;99.90;;;;;;4993435;28;20486;-64
2023/01/15 06:31:48;;;;;;;4.40;0.90;;;6.80;99.90;;;;;;4993547;28;20073;-64
2023/01/15 06:34:14;;;;;;;4.47;0.68;;;6.80;99.90;;;;;;4993228;28;20026;-64
2023/01/15 06:36:39;;;;;;;11.48;1.55;;;6.70;99.90;;;;;;4993015;28;20051;-64
2023/01/15 06:39:05;;;;;;;5.13;1.20;;;6.60;99.90;;;;;;4993267;28;20076;-64
2023/01/15 06:47:19;;;;;;;2.25;0.70;;;6.40;99.90;;;;;;4993472;28;20097;-64
2023/01/15 06:49:46;;;;;;;3.53;1.10;;;6.40;99.90;;;;;;4992949;28;20026;-64
2023/01/15 06:52:12;;;;;;;11.07;1.33;;;6.40;99.90;;;;;;4993465;28;20444;-65
2023/01/15 06:54:40;;;;;;;5.10;1.00;;;6.40;99.90;;;;;;5007952;23;20053;-68
2023/01/15 06:57:06;;;;;;;2.25;0.90;;;6.30;99.90;;;;;;4979646;28;20484;-63
2023/01/15 06:59:32;;;;;;;2.45;0.50;;;6.30;99.90;;;;;;4993168;28;20029;-63
2023/01/15 07:01:58;;;;;;;0.70;0.40;;;6.20;99.90;;;;;;4993358;28;20026;-63
2023/01/15 07:04:24;;;;;;;4.25;0.73;;;6.20;99.90;;;;;;4993119;28;20023;-63
2023/01/15 07:06:49;;;;;;;0.93;0.40;;;6.20;99.90;;;;;;4992854;28;20037;-63
2023/01/15 07:09:15;;;;;;;5.72;1.10;;;6.10;99.90;;;;;;4975850;28;20054;-69
2023/01/15 07:11:50;;;;;;;6.53;0.73;;;6.00;99.90;;;;;;4993096;28;20034;-63
2023/01/15 07:14:21;;;;;;;6.25;1.13;;;6.00;99.90;;;;;;4993252;28;20045;-64
2023/01/15 07:16:48;;;;;;;2.92;0.60;;;6.00;99.90;;;;;;4992840;28;20109;-62
2023/01/15 07:19:14;;;;;;;1.95;0.98;;;6.00;99.90;;;;;;4992763;28;20022;-62
2023/01/15 07:21:40;;;;;;;5.10;1.02;;;5.90;99.90;;;;;;4992804;28;20030;-64
2023/01/15 07:24:07;;;;;;;7.30;0.98;;;5.90;99.90;;;;;;4994479;28;20038;-62
2023/01/15 07:26:33;;;;;;;6.18;1.35;;;5.90;99.90;;;;;;4996683;28;20022;-63
2023/01/15 07:28:59;;;;;;;7.47;1.45;;;5.80;99.90;;;;;;4996842;28;20026;-63
2023/01/15 07:31:24;;;;;;;9.98;1.27;;;5.80;99.90;;;;;;4996542;28;20029;-69
2023/01/15 07:33:50;;;;;;;7.15;1.48;;;5.80;99.90;;;;;;4996476;28;20026;-72
2023/01/15 07:36:16;;;;;;;4.53;1.20;;;5.80;99.90;;;;;;4996155;28;20112;-71
2023/01/15 07:38:42;;;;;;;6.63;1.15;;;5.70;99.90;;;;;;4995706;28;20022;-63
2023/01/15 07:52:05;;;;;;;7.47;1.58;;;5.60;99.90;;;;;;4996035;28;20030;-64
2023/01/15 07:54:31;;;;;;;8.18;2.08;;;5.60;99.90;;;;;;4996002;28;20049;-67
2023/01/15 07:56:57;;;;;;;14.30;1.90;;;5.60;99.90;;;;;;4995784;28;20099;-65
2023/01/15 07:59:24;;;;;;;7.88;1.00;;;5.60;99.90;;;;;;4996245;28;20091;-64
2023/01/15 08:01:50;;;;;;;1.45;1.02;;;5.60;99.90;;;;;;4978280;28;20027;-64
2023/01/15 08:04:16;;;;;;;8.35;1.73;;;5.60;99.90;;;;;;4996011;28;20042;-65
2023/01/15 08:06:42;;;;;;;9.43;1.30;;;5.70;99.90;;;;;;4995983;28;20030;-64
2023/01/15 08:09:08;;;;;;;7.47;1.42;;;5.70;99.90;;;;;;4978562;28;20046;-64
2023/01/15 08:17:03;;;;;;;7.45;0.90;;;5.80;99.90;;;;;;4995057;28;20126;-65
2023/01/15 08:19:29;;;;;;;7.57;1.00;;;5.80;99.90;;;;;;4995659;28;20038;-65
2023/01/15 08:21:56;;;;;;;14.10;1.35;;;5.80;99.90;;;;;;4995613;28;20030;-65
2023/01/15 08:24:22;;;;;;;6.10;0.90;;;5.90;99.90;;;;;;4995464;28;20057;-64
2023/01/15 08:26:48;;;;;;;7.13;1.88;;;5.90;99.90;;;;;;4995636;28;20023;-65
2023/01/15 08:29:14;;;;;;;11.55;2.10;;;6.00;99.90;;;;;;4995359;28;20037;-65
2023/01/15 08:31:40;;;;;;;24.98;2.00;;;6.00;99.90;;;;;;4995286;28;20034;-65
2023/01/15 08:34:07;;;;;;;4.93;1.00;;;6.10;99.90;;;;;;4995271;28;20026;-65
2023/01/15 08:36:32;;;;;;;9.63;1.08;;;6.10;99.90;;;;;;4995344;28;20030;-65
2023/01/15 08:38:58;;;;;;;15.52;1.45;;;6.10;99.90;;;;;;4995345;28;20399;-64
2023/01/15 08:41:24;;;;;;;4.63;1.92;;;6.10;99.90;;;;;;4995464;28;20037;-65
2023/01/15 08:43:50;;;;;;;2.20;1.08;;;6.20;99.90;;;;;;4995261;28;20097;-65
2023/01/15 08:46:16;;;;;;;8.05;1.35;;;6.30;99.90;;;;;;4977709;28;20543;-65
2023/01/15 08:48:43;;;;;;;11.75;1.02;;;6.40;99.90;;;;;;4977900;28;20399;-65
2023/01/15 08:51:10;;;;;;;10.43;1.48;;;6.40;99.90;;;;;;4995229;28;20022;-65
2023/01/15 08:53:37;;;;;;;4.57;0.80;;;6.40;99.90;;;;;;4994884;28;20483;-65
2023/01/15 08:56:03;;;;;;;7.50;1.75;;;6.40;99.90;;;;;;4994908;28;20077;-65
2023/01/15 08:58:31;;;;;;;10.55;1.38;;;6.60;99.90;;;;;;4991093;28;20034;-68
2023/01/15 09:01:07;;;;;;;15.50;1.58;;;6.70;99.90;;;;;;4989516;28;20527;-65
2023/01/15 09:03:34;;;;;;;5.53;1.23;;;6.80;99.90;;;;;;4988282;28;20031;-64
2023/01/15 09:06:01;;;;;;;7.63;1.42;;;6.90;99.90;;;;;;4977242;28;20599;-64
2023/01/15 09:08:28;;;;;;;13.00;1.40;;;6.80;99.90;;;;;;4994817;28;20030;-64
2023/01/15 09:11:01;;;;;;;4.22;1.48;;;7.00;99.90;;;;;;4994792;28;20045;-64
2023/01/15 09:13:28;;;;;;;3.65;0.80;;;7.00;99.90;;;;;;4994535;28;20026;-65
2023/01/15 09:16:02;;;;;;;4.00;1.27;;;7.00;99.90;;;;;;4994728;28;20033;-64
2023/01/15 09:18:28;;;;;;;7.78;1.65;;;7.00;99.90;;;;;;4977329;28;20046;-64
2023/01/15 09:20:54;;;;;;;4.65;2.03;;;7.00;99.90;;;;;;4994730;28;20053;-64
2023/01/15 09:23:20;;;;;;;7.28;1.92;;;7.20;99.90;;;;;;4994192;28;20068;-69
2023/01/15 09:25:54;;;;;;;7.22;1.02;;;7.20;99.90;;;;;;4994325;28;20088;-64
2023/01/15 09:28:20;;;;;;;5.15;1.40;;;7.10;99.90;;;;;;4994198;28;20026;-64
2023/01/15 09:30:46;;;;;;;2.63;0.73;;;7.10;99.90;;;;;;4994692;28;20034;-64
2023/01/15 09:33:12;;;;;;;9.35;1.35;;;7.20;99.90;;;;;;4993735;28;20149;-64
2023/01/15 09:35:38;;;;;;;13.82;1.73;;;7.10;99.90;;;;;;4994619;28;20026;-64
2023/01/15 09:38:04;;;;;;;6.90;1.23;;;7.20;99.90;;;;;;4976523;28;20501;-68
2023/01/15 09:40:55;;;;;;;6.70;1.35;;;7.40;99.90;;;;;;4994240;28;20053;-64
2023/01/15 09:43:44;;;;;;;4.80;0.98;;;7.40;99.90;;;;;;4993478;28;20141;-64
2023/01/15 09:46:19;;;;;;;11.88;1.10;;;7.20;99.90;;;;;;4993348;28;20034;-64
2023/01/15 09:49:25;;;;;;;17.83;2.75;;;7.10;99.90;;;;;;4981800;28;20034;-70
2023/01/15 09:52:26;;;;;;;5.95;1.95;;;7.10;99.90;;;;;;4993944;28;20066;-64
2023/01/15 09:54:58;;;;;;;13.32;2.03;;;7.10;99.90;;;;;;4933413;29;20140;-64
2023/01/15 09:57:26;;;;;;;10.07;1.85;;;7.10;99.90;;;;;;4976000;28;20086;-64
2023/01/15 09:59:59;;;;;;;6.80;1.17;;;7.00;99.90;;;;;;4993771;28;20022;-64
2023/01/15 10:02:42;;;;;;;5.75;1.27;;;7.00;99.90;;;;;;4993970;28;20049;-64
2023/01/15 10:05:34;;;;;;;9.02;1.60;;;7.20;99.90;;;;;;4993535;28;20026;-64
2023/01/15 10:08:14;;;;;;;8.38;0.90;;;7.10;99.90;;;;;;4981128;28;20113;-64
2023/01/15 10:10:53;;;;;;;10.60;1.67;;;7.40;99.90;;;;;;4987795;28;20045;-64
2023/01/15 10:13:36;;;;;;;8.68;1.27;;;7.80;99.90;;;;;;4993274;28;20037;-64
2023/01/15 10:16:02;;;;;;;10.95;1.35;;;7.80;99.90;;;;;;4987399;28;20065;-64
2023/01/15 10:18:29;;;;;;;5.78;1.33;;;7.70;99.90;;;;;;4987831;28;20359;-70
2023/01/15 10:21:09;;;;;;;3.65;0.88;;;7.80;99.90;;;;;;4979198;28;20026;-65
2023/01/15 10:23:41;;;;;;;7.50;1.52;;;7.60;99.90;;;;;;4986163;28;20034;-66
2023/01/15 10:26:26;;;;;;;1.17;0.65;;;7.50;99.90;;;;;;4986696;28;20079;-65
2023/01/15 10:28:59;;;;;;;9.70;2.45;;;7.80;99.90;;;;;;4985317;28;20038;-64
2023/01/15 10:31:43;;;;;;;2.03;0.90;;;7.90;99.90;;;;;;4989352;28;20022;-65
2023/01/15 10:34:12;;;;;;;1.73;0.52;;;7.70;99.90;;;;;;4982780;28;20031;-64
2023/01/15 10:37:10;;;;;;;1.55;0.75;;;7.50;99.90;;;;;;4971899;28;20041;-64
2023/01/15 10:39:45;;;;;;;0.63;0.40;;;7.70;99.90;;;;;;4936578;28;20391;-64
2023/01/15 10:42:50;;;;;;;2.17;1.38;;;7.50;99.90;;;;;;4978627;28;20026;-66
2023/01/15 10:45:26;;;;;;;4.30;0.98;;;7.80;99.90;;;;;;4957720;28;20105;-64
2023/01/15 10:48:17;;;;;;;0.85;0.55;;;7.80;99.90;;;;;;4989070;28;20043;-65
2023/01/15 10:50:44;;;;;;;2.57;0.77;;;7.50;99.90;;;;;;4989234;28;20057;-64
2023/01/15 10:53:30;;;;;;;6.72;1.17;;;7.60;99.90;;;;;;4989227;28;20119;-65
2023/01/15 10:56:21;;;;;;;5.72;1.15;;;7.40;99.90;;;;;;4983429;28;20035;-64
2023/01/15 10:59:07;;;;;;;2.88;0.73;;;7.70;99.90;;;;;;4987963;28;20094;-65
2023/01/15 11:01:33;;;;;;;4.47;0.40;;;7.70;99.90;;;;;;4992890;28;20092;-64
2023/01/15 11:04:00;;;;;;;5.22;1.10;;;7.70;99.90;;;;;;4972745;28;20094;-64
2023/01/15 11:06:31;;;;;;;2.95;0.88;;;7.80;99.90;;;;;;4979792;28;20483;-70
2023/01/15 11:08:58;;;;;;;8.35;0.70;;;7.50;99.90;;;;;;4987345;28;20144;-65
2023/01/15 11:20:42;;;;;;;;;;;7.00;99.90;;;;;;4985540;28;20033;-65
2023/01/15 11:23:20;;;;;;;1.92;0.65;;;7.00;99.90;;;;;;4985424;28;20020;-64
2023/01/15 11:25:58;;;;;;;9.43;1.58;;;6.90;99.90;;;;;;4992400;28;20030;-65
2023/01/15 11:28:30;;;;;;;7.78;1.70;;;6.90;99.90;;;;;;4992652;28;20033;-65
2023/01/15 11:30:58;;;;;;;7.13;1.27;;;7.10;99.90;;;;;;4992414;28;20395;-70
2023/01/15 11:33:26;;;;;;;4.22;0.80;;;7.10;99.90;;;;;;4992855;28;20022;-64
2023/01/15 11:35:58;;;;;;;3.10;0.80;;;7.30;99.90;;;;;;4992396;28;20055;-65
2023/01/15 11:38:27;;;;;;;10.18;1.75;;;7.40;99.90;;;;;;4979639;28;20181;-64
2023/01/15 11:40:58;;;;;;;1.15;0.60;;;7.80;99.90;;;;;;4988898;28;20403;-67
2023/01/15 11:52:07;;;;;;;0.88;0.50;;;7.90;99.90;;;;;;4978987;28;20475;-65
2023/01/15 11:54:39;;;;;;;9.80;1.00;;;7.80;99.90;;;;;;4990768;28;20038;-65
2023/01/15 11:57:05;;;;;;;;;;;7.70;99.90;;;;;;4984970;28;20407;-65
2023/01/15 11:59:32;;;;;;;6.97;0.93;;;7.70;99.90;;;;;;5004327;28;19917;-65
2023/01/15 12:01:59;;;;;;;1.27;0.63;;;8.20;99.90;;;;;;4992424;28;20026;-72
2023/01/15 12:04:34;;;;;;;3.42;0.75;;;8.00;99.90;;;;;;4992124;28;20077;-64
2023/01/15 12:07:02;;;;;;;2.38;0.50;;;7.90;99.90;;;;;;4991876;28;20561;-65
2023/01/15 12:09:41;;;;;;;0.65;0.55;;;7.90;99.90;;;;;;4973832;28;20538;-63
2023/01/15 12:12:28;;;;;;;3.65;1.30;;;8.00;99.90;;;;;;4989521;28;20025;-65
2023/01/15 12:15:06;;;;;;;7.93;2.50;;;7.80;99.90;;;;;;4991795;28;20566;-65
2023/01/15 12:17:47;;;;;;;2.90;0.50;;;7.70;99.90;;;;;;4987814;28;20499;-65
2023/01/15 12:20:28;;;;;;;9.07;1.30;;;7.80;99.90;;;;;;4986287;28;20491;-64
2023/01/15 12:23:23;;;;;;;5.93;1.05;;;7.90;99.90;;;;;;4990920;28;20076;-64
2023/01/15 12:26:16;;;;;;;11.00;0.90;;;8.10;99.90;;;;;;4954391;28;20408;-65
2023/01/15 12:29:01;;;;;;;8.75;1.13;;;8.10;99.90;;;;;;4985324;28;20038;-68
2023/01/15 12:32:03;;;;;;;4.22;0.77;;;7.90;99.90;;;;;;4974012;28;20113;-65
2023/01/15 12:35:01;;;;;;;3.75;0.95;;;8.10;99.90;;;;;;4985169;28;20053;-65
2023/01/15 12:37:36;;;;;;;7.18;1.33;;;8.40;99.90;;;;;;4991337;28;20486;-66
2023/01/15 12:40:26;;;;;;;3.78;1.42;;;8.70;99.90;;;;;;4991079;28;20020;-64
2023/01/15 12:45:48;;;;;;;2.05;0.95;;;9.40;99.90;;;;;;4991046;28;20034;-65
2023/01/15 12:48:33;;;;;;;6.72;0.73;;;9.60;99.90;;;;;;4991080;28;20561;-68
2023/01/15 12:51:03;;;;;;;8.85;1.10;;;10.10;99.90;;;;;;4991207;28;20030;-66
2023/01/15 12:53:35;;;;;;;5.32;1.13;;;10.30;99.90;;;;;;4990905;28;20050;-67
2023/01/15 12:56:23;;;;;;;4.28;1.00;;;10.10;99.90;;;;;;4990991;28;20080;-64
2023/01/15 12:59:20;;;;;;;2.08;0.88;;;9.40;99.90;;;;;;4981093;28;20487;-66
2023/01/15 13:01:52;;;;;;;2.42;1.00;;;9.40;99.90;;;;;;4992617;28;20026;-66
2023/01/15 13:04:33;;;;;;;18.73;0.98;;;9.10;99.90;;;;;;4993672;28;20041;-65
2023/01/15 13:07:20;;;;;;;2.33;0.90;;;9.20;99.90;;;;;;4994371;28;20353;-64
2023/01/15 13:09:57;;;;;;;3.15;1.10;;;9.30;99.90;;;;;;4994878;28;20029;-64
2023/01/15 13:12:24;;;;;;;4.93;0.65;;;9.20;99.90;;;;;;4977282;28;20026;-64
2023/01/15 13:14:51;;;;;;;2.20;0.60;;;8.90;99.90;;;;;;4976947;28;20165;-64
2023/01/15 13:17:26;;;;;;;8.50;1.35;;;8.70;99.90;;;;;;4993125;28;20483;-64
2023/01/15 13:20:05;;;;;;;4.28;1.52;;;8.60;99.90;;;;;;4994482;28;20026;-66
2023/01/15 13:22:40;;;;;;;5.72;1.60;;;8.30;99.90;;;;;;4977329;28;20042;-65
2023/01/15 13:25:26;;;;;;;7.72;0.93;;;8.20;99.90;;;;;;4977244;28;20037;-64
2023/01/15 13:28:20;;;;;;;9.23;1.55;;;8.20;99.90;;;;;;4957732;28;20034;-64
2023/01/15 13:30:59;;;;;;;7.80;0.80;;;8.20;99.90;;;;;;4994519;28;20041;-65
2023/01/15 13:33:42;;;;;;;1.65;0.40;;;8.20;99.90;;;;;;4994385;28;20045;-64
2023/01/15 13:36:28;;;;;;;1.90;0.82;;;8.30;99.90;;;;;;4993932;28;20038;-64
2023/01/15 13:38:58;;;;;;;8.05;1.10;;;8.30;99.90;;;;;;4994205;28;20395;-64
2023/01/15 13:44:23;;;;;;;5.35;1.20;;;8.30;99.90;;;;;;4993879;28;20030;-64
2023/01/15 13:47:09;;;;;;;2.92;1.35;;;8.90;99.90;;;;;;4994054;28;20134;-67
2023/01/15 13:49:45;;;;;;;3.72;1.20;;;8.90;99.90;;;;;;4993663;28;20026;-64
2023/01/15 13:52:31;;;;;;;1.55;0.60;;;8.60;99.90;;;;;;4993937;28;20018;-64
2023/01/15 13:55:19;;;;;;;2.25;1.10;;;8.70;99.90;;;;;;4993500;28;20038;-64
2023/01/15 13:57:47;;;;;;;2.70;0.63;;;9.10;99.90;;;;;;4993393;28;20082;-64
2023/01/15 14:00:33;;;;;;;1.98;0.82;;;9.00;99.90;;;;;;4993713;28;20026;-64
2023/01/15 14:03:21;;;;;;;3.58;0.65;;;9.10;99.90;;;;;;4993878;28;20034;-64
2023/01/15 14:05:57;;;;;;;6.85;1.17;;;9.10;99.90;;;;;;4975426;28;20081;-64
2023/01/15 14:08:44;;;;;;;3.08;0.70;;;8.80;99.90;;;;;;4993575;28;20057;-68
2023/01/15 14:11:35;;;;;;;5.28;1.10;;;8.80;99.90;;;;;;4976218;28;20097;-65